sensor_id;sensor_type;location;lat;lon;timestamp;P1;durP1;ratioP1;P2;durP2;ratioP2
39896;SDS011;25567;48.276;14.242;2022-12-07T00:01:29;46.90;;;18.05;;
39896;SDS011;25567;48.276;14.242;2022-12-07T00:03:58;43.65;;;18.02;;
39896;SDS011;25567;48.276;14.242;2022-12-07T00:06:32;46.03;;;17.52;;
39896;SDS011;25567;48.276;14.242;2022-12-07T00:09:00;44.83;;;17.38;;
39896;SDS011;25567;48.276;14.242;2022-12-07T00:11:27;47.08;;;18.90;;
39896;SDS011;25567;48.276;14.242;2022-12-07T00:13:55;47.97;;;18.17;;
39896;SDS011;25567;48.276;14.242;2022-12-07T00:16:25;51.15;;;18.33;;
39896;SDS011;25567;48.276;14.242;2022-12-07T00:18:54;47.95;;;17.33;;
39896;SDS011;25567;48.276;14.242;2022-12-07T00:21:23;43.00;;;17.73;;
39896;SDS011;25567;48.276;14.242;2022-12-07T00:23:51;41.83;;;16.35;;
39896;SDS011;25567;48.276;14.242;2022-12-07T00:28:56;45.45;;;17.95;;
39896;SDS011;25567;48.276;14.242;2022-12-07T00:31:25;42.70;;;17.00;;
39896;SDS011;25567;48.276;14.242;2022-12-07T00:33:53;39.88;;;17.30;;
39896;SDS011;25567;48.276;14.242;2022-12-07T00:36:21;53.60;;;17.30;;
39896;SDS011;25567;48.276;14.242;2022-12-07T00:38:53;40.67;;;15.25;;
39896;SDS011;25567;48.276;14.242;2022-12-07T00:41:22;39.47;;;16.13;;
39896;SDS011;25567;48.276;14.242;2022-12-07T00:43:50;37.50;;;15.55;;
39896;SDS011;25567;48.276;14.242;2022-12-07T00:46:18;38.80;;;14.60;;
39896;SDS011;25567;48.276;14.242;2022-12-07T00:48:46;40.08;;;14.32;;
39896;SDS011;25567;48.276;14.242;2022-12-07T00:51:14;34.05;;;14.02;;
39896;SDS011;25567;48.276;14.242;2022-12-07T00:53:43;37.85;;;14.02;;
39896;SDS011;25567;48.276;14.242;2022-12-07T00:56:12;39.92;;;14.10;;
39896;SDS011;25567;48.276;14.242;2022-12-07T00:58:40;34.20;;;13.55;;
39896;SDS011;25567;48.276;14.242;2022-12-07T01:01:08;37.78;;;13.88;;
39896;SDS011;25567;48.276;14.242;2022-12-07T01:03:36;33.10;;;13.02;;
39896;SDS011;25567;48.276;14.242;2022-12-07T01:06:04;38.15;;;13.27;;
39896;SDS011;25567;48.276;14.242;2022-12-07T01:08:32;36.10;;;14.90;;
39896;SDS011;25567;48.276;14.242;2022-12-07T01:13:27;32.97;;;13.55;;
39896;SDS011;25567;48.276;14.242;2022-12-07T01:15:56;35.05;;;13.43;;
39896;SDS011;25567;48.276;14.242;2022-12-07T01:18:26;31.80;;;14.02;;
39896;SDS011;25567;48.276;14.242;2022-12-07T01:20:58;31.05;;;14.15;;
39896;SDS011;25567;48.276;14.242;2022-12-07T01:23:26;35.60;;;13.13;;
39896;SDS011;25567;48.276;14.242;2022-12-07T01:25:55;32.63;;;13.18;;
39896;SDS011;25567;48.276;14.242;2022-12-07T01:28:23;33.63;;;13.75;;
39896;SDS011;25567;48.276;14.242;2022-12-07T01:30:59;35.40;;;14.50;;
39896;SDS011;25567;48.276;14.242;2022-12-07T01:33:28;32.40;;;13.65;;
39896;SDS011;25567;48.276;14.242;2022-12-07T01:36:01;33.78;;;13.93;;
39896;SDS011;25567;48.276;14.242;2022-12-07T01:38:29;33.63;;;14.00;;
39896;SDS011;25567;48.276;14.242;2022-12-07T01:40:57;33.70;;;13.07;;
39896;SDS011;25567;48.276;14.242;2022-12-07T01:43:25;38.65;;;14.15;;
39896;SDS011;25567;48.276;14.242;2022-12-07T01:45:55;30.45;;;13.18;;
39896;SDS011;25567;48.276;14.242;2022-12-07T01:48:24;30.15;;;13.05;;
39896;SDS011;25567;48.276;14.242;2022-12-07T01:50:55;36.20;;;12.88;;
39896;SDS011;25567;48.276;14.242;2022-12-07T01:53:28;35.08;;;13.65;;
39896;SDS011;25567;48.276;14.242;2022-12-07T01:55:56;29.10;;;12.70;;
39896;SDS011;25567;48.276;14.242;2022-12-07T01:58:25;26.27;;;12.50;;
39896;SDS011;25567;48.276;14.242;2022-12-07T02:00:52;30.65;;;13.15;;
39896;SDS011;25567;48.276;14.242;2022-12-07T02:05:46;23.98;;;11.23;;
39896;SDS011;25567;48.276;14.242;2022-12-07T02:08:15;29.75;;;12.68;;
39896;SDS011;25567;48.276;14.242;2022-12-07T02:10:44;26.13;;;11.50;;
39896;SDS011;25567;48.276;14.242;2022-12-07T02:18:15;30.90;;;11.18;;
39896;SDS011;25567;48.276;14.242;2022-12-07T02:29:06;32.92;;;11.30;;
39896;SDS011;25567;48.276;14.242;2022-12-07T02:31:36;27.35;;;10.93;;
39896;SDS011;25567;48.276;14.242;2022-12-07T02:34:17;23.75;;;11.27;;
39896;SDS011;25567;48.276;14.242;2022-12-07T02:36:53;23.90;;;10.15;;
39896;SDS011;25567;48.276;14.242;2022-12-07T02:39:29;26.55;;;10.80;;
39896;SDS011;25567;48.276;14.242;2022-12-07T02:42:10;26.67;;;11.02;;
39896;SDS011;25567;48.276;14.242;2022-12-07T02:44:42;20.52;;;9.38;;
39896;SDS011;25567;48.276;14.242;2022-12-07T02:47:12;24.35;;;11.20;;
39896;SDS011;25567;48.276;14.242;2022-12-07T02:49:45;23.00;;;9.63;;
39896;SDS011;25567;48.276;14.242;2022-12-07T02:52:12;17.20;;;9.35;;
39896;SDS011;25567;48.276;14.242;2022-12-07T02:54:40;17.83;;;8.73;;
39896;SDS011;25567;48.276;14.242;2022-12-07T02:58:05;16.33;;;8.50;;
39896;SDS011;25567;48.276;14.242;2022-12-07T03:18:45;17.73;;;8.45;;
39896;SDS011;25567;48.276;14.242;2022-12-07T03:21:31;18.85;;;8.32;;
39896;SDS011;25567;48.276;14.242;2022-12-07T03:24:03;14.88;;;7.68;;
39896;SDS011;25567;48.276;14.242;2022-12-07T03:26:35;14.20;;;7.28;;
39896;SDS011;25567;48.276;14.242;2022-12-07T03:29:06;16.30;;;8.05;;
39896;SDS011;25567;48.276;14.242;2022-12-07T03:31:41;16.58;;;7.72;;
39896;SDS011;25567;48.276;14.242;2022-12-07T03:37:12;16.42;;;7.53;;
39896;SDS011;25567;48.276;14.242;2022-12-07T03:39:46;15.75;;;7.50;;
39896;SDS011;25567;48.276;14.242;2022-12-07T03:42:36;17.27;;;7.55;;
39896;SDS011;25567;48.276;14.242;2022-12-07T03:45:03;17.30;;;7.63;;
39896;SDS011;25567;48.276;14.242;2022-12-07T03:50:08;15.98;;;7.10;;
39896;SDS011;25567;48.276;14.242;2022-12-07T03:52:45;16.95;;;8.18;;
39896;SDS011;25567;48.276;14.242;2022-12-07T03:55:27;15.57;;;7.85;;
39896;SDS011;25567;48.276;14.242;2022-12-07T03:57:58;15.18;;;8.68;;
39896;SDS011;25567;48.276;14.242;2022-12-07T04:00:29;16.10;;;8.43;;
39896;SDS011;25567;48.276;14.242;2022-12-07T04:02:56;14.93;;;7.68;;
39896;SDS011;25567;48.276;14.242;2022-12-07T04:05:23;17.80;;;7.50;;
39896;SDS011;25567;48.276;14.242;2022-12-07T04:07:50;17.23;;;7.28;;
39896;SDS011;25567;48.276;14.242;2022-12-07T04:10:17;13.35;;;7.25;;
39896;SDS011;25567;48.276;14.242;2022-12-07T04:12:44;15.48;;;6.97;;
39896;SDS011;25567;48.276;14.242;2022-12-07T04:15:12;13.45;;;7.25;;
39896;SDS011;25567;48.276;14.242;2022-12-07T04:17:39;13.23;;;6.88;;
39896;SDS011;25567;48.276;14.242;2022-12-07T04:20:05;13.93;;;6.93;;
39896;SDS011;25567;48.276;14.242;2022-12-07T04:22:33;15.32;;;6.53;;
39896;SDS011;25567;48.276;14.242;2022-12-07T04:25:00;17.45;;;6.97;;
39896;SDS011;25567;48.276;14.242;2022-12-07T04:27:27;14.05;;;7.07;;
39896;SDS011;25567;48.276;14.242;2022-12-07T04:29:53;14.65;;;7.40;;
39896;SDS011;25567;48.276;14.242;2022-12-07T04:32:22;15.55;;;7.72;;
39896;SDS011;25567;48.276;14.242;2022-12-07T04:34:49;16.80;;;7.53;;
39896;SDS011;25567;48.276;14.242;2022-12-07T04:37:21;14.93;;;7.55;;
39896;SDS011;25567;48.276;14.242;2022-12-07T04:39:48;17.58;;;7.72;;
39896;SDS011;25567;48.276;14.242;2022-12-07T04:42:15;16.25;;;7.60;;
39896;SDS011;25567;48.276;14.242;2022-12-07T04:44:42;13.95;;;6.85;;
39896;SDS011;25567;48.276;14.242;2022-12-07T04:47:08;14.73;;;7.05;;
39896;SDS011;25567;48.276;14.242;2022-12-07T04:49:35;13.90;;;7.00;;
39896;SDS011;25567;48.276;14.242;2022-12-07T04:52:02;14.02;;;6.95;;
39896;SDS011;25567;48.276;14.242;2022-12-07T04:54:29;14.88;;;7.05;;
39896;SDS011;25567;48.276;14.242;2022-12-07T04:56:55;15.20;;;6.53;;
39896;SDS011;25567;48.276;14.242;2022-12-07T04:59:22;13.07;;;6.80;;
39896;SDS011;25567;48.276;14.242;2022-12-07T05:01:49;15.82;;;7.50;;
39896;SDS011;25567;48.276;14.242;2022-12-07T05:04:16;15.85;;;7.65;;
39896;SDS011;25567;48.276;14.242;2022-12-07T05:06:44;16.25;;;7.60;;
39896;SDS011;25567;48.276;14.242;2022-12-07T05:09:11;16.42;;;6.90;;
39896;SDS011;25567;48.276;14.242;2022-12-07T05:11:37;17.42;;;7.70;;
39896;SDS011;25567;48.276;14.242;2022-12-07T05:14:06;14.50;;;7.43;;
39896;SDS011;25567;48.276;14.242;2022-12-07T05:16:35;14.48;;;7.22;;
39896;SDS011;25567;48.276;14.242;2022-12-07T05:19:02;14.43;;;7.43;;
39896;SDS011;25567;48.276;14.242;2022-12-07T05:21:29;14.77;;;7.03;;
39896;SDS011;25567;48.276;14.242;2022-12-07T05:23:56;13.57;;;6.97;;
39896;SDS011;25567;48.276;14.242;2022-12-07T05:26:23;19.17;;;8.18;;
39896;SDS011;25567;48.276;14.242;2022-12-07T05:28:53;14.63;;;6.85;;
39896;SDS011;25567;48.276;14.242;2022-12-07T05:31:21;18.95;;;7.93;;
39896;SDS011;25567;48.276;14.242;2022-12-07T05:33:49;16.35;;;7.85;;
39896;SDS011;25567;48.276;14.242;2022-12-07T05:36:16;13.45;;;6.82;;
39896;SDS011;25567;48.276;14.242;2022-12-07T05:38:43;15.07;;;7.90;;
39896;SDS011;25567;48.276;14.242;2022-12-07T05:41:12;15.07;;;7.70;;
39896;SDS011;25567;48.276;14.242;2022-12-07T05:43:56;17.52;;;7.60;;
39896;SDS011;25567;48.276;14.242;2022-12-07T05:46:23;16.88;;;7.95;;
39896;SDS011;25567;48.276;14.242;2022-12-07T05:48:49;15.38;;;7.63;;
39896;SDS011;25567;48.276;14.242;2022-12-07T05:51:18;18.65;;;7.68;;
39896;SDS011;25567;48.276;14.242;2022-12-07T05:53:47;19.45;;;7.82;;
39896;SDS011;25567;48.276;14.242;2022-12-07T05:56:14;19.58;;;8.30;;
39896;SDS011;25567;48.276;14.242;2022-12-07T05:58:49;16.73;;;7.95;;
39896;SDS011;25567;48.276;14.242;2022-12-07T06:01:31;19.80;;;8.95;;
39896;SDS011;25567;48.276;14.242;2022-12-07T06:04:07;17.80;;;8.73;;
39896;SDS011;25567;48.276;14.242;2022-12-07T06:06:34;19.95;;;8.55;;
39896;SDS011;25567;48.276;14.242;2022-12-07T06:09:01;18.48;;;8.88;;
39896;SDS011;25567;48.276;14.242;2022-12-07T06:11:28;17.73;;;7.57;;
39896;SDS011;25567;48.276;14.242;2022-12-07T06:14:10;16.35;;;8.27;;
39896;SDS011;25567;48.276;14.242;2022-12-07T06:16:37;16.88;;;8.75;;
39896;SDS011;25567;48.276;14.242;2022-12-07T06:19:04;16.85;;;8.68;;
39896;SDS011;25567;48.276;14.242;2022-12-07T06:21:31;18.83;;;8.52;;
39896;SDS011;25567;48.276;14.242;2022-12-07T06:23:58;17.80;;;8.85;;
39896;SDS011;25567;48.276;14.242;2022-12-07T06:26:24;20.35;;;9.80;;
39896;SDS011;25567;48.276;14.242;2022-12-07T06:28:51;17.98;;;9.23;;
39896;SDS011;25567;48.276;14.242;2022-12-07T06:31:18;18.50;;;8.68;;
39896;SDS011;25567;48.276;14.242;2022-12-07T06:33:45;19.88;;;9.30;;
39896;SDS011;25567;48.276;14.242;2022-12-07T06:36:15;21.00;;;8.70;;
39896;SDS011;25567;48.276;14.242;2022-12-07T06:38:41;18.33;;;9.27;;
39896;SDS011;25567;48.276;14.242;2022-12-07T06:41:08;23.55;;;9.65;;
39896;SDS011;25567;48.276;14.242;2022-12-07T06:43:35;22.55;;;10.00;;
39896;SDS011;25567;48.276;14.242;2022-12-07T06:46:03;22.50;;;10.25;;
39896;SDS011;25567;48.276;14.242;2022-12-07T06:48:30;27.00;;;9.85;;
39896;SDS011;25567;48.276;14.242;2022-12-07T06:51:00;19.50;;;9.73;;
39896;SDS011;25567;48.276;14.242;2022-12-07T06:53:26;20.52;;;9.98;;
39896;SDS011;25567;48.276;14.242;2022-12-07T06:55:53;21.10;;;10.13;;
39896;SDS011;25567;48.276;14.242;2022-12-07T06:58:20;26.17;;;10.88;;
39896;SDS011;25567;48.276;14.242;2022-12-07T07:00:47;27.45;;;11.15;;
39896;SDS011;25567;48.276;14.242;2022-12-07T07:03:16;28.17;;;10.73;;
39896;SDS011;25567;48.276;14.242;2022-12-07T07:05:43;39.72;;;12.25;;
39896;SDS011;25567;48.276;14.242;2022-12-07T07:08:11;46.55;;;10.85;;
39896;SDS011;25567;48.276;14.242;2022-12-07T07:10:48;25.92;;;11.23;;
39896;SDS011;25567;48.276;14.242;2022-12-07T07:13:14;29.48;;;10.40;;
39896;SDS011;25567;48.276;14.242;2022-12-07T07:15:41;29.52;;;10.93;;
39896;SDS011;25567;48.276;14.242;2022-12-07T07:18:08;21.77;;;10.50;;
39896;SDS011;25567;48.276;14.242;2022-12-07T07:20:37;23.55;;;10.75;;
39896;SDS011;25567;48.276;14.242;2022-12-07T07:23:03;20.58;;;10.05;;
39896;SDS011;25567;48.276;14.242;2022-12-07T07:25:30;21.67;;;9.77;;
39896;SDS011;25567;48.276;14.242;2022-12-07T07:27:58;21.48;;;9.80;;
39896;SDS011;25567;48.276;14.242;2022-12-07T07:30:25;21.77;;;10.13;;
39896;SDS011;25567;48.276;14.242;2022-12-07T07:32:56;20.08;;;9.27;;
39896;SDS011;25567;48.276;14.242;2022-12-07T07:35:24;23.70;;;9.70;;
39896;SDS011;25567;48.276;14.242;2022-12-07T07:37:52;19.17;;;9.23;;
39896;SDS011;25567;48.276;14.242;2022-12-07T07:40:18;24.35;;;9.70;;
39896;SDS011;25567;48.276;14.242;2022-12-07T07:42:47;21.73;;;10.30;;
39896;SDS011;25567;48.276;14.242;2022-12-07T07:45:14;18.42;;;8.95;;
39896;SDS011;25567;48.276;14.242;2022-12-07T07:47:41;22.48;;;10.07;;
39896;SDS011;25567;48.276;14.242;2022-12-07T07:50:08;21.08;;;9.63;;
39896;SDS011;25567;48.276;14.242;2022-12-07T07:52:35;19.48;;;9.13;;
39896;SDS011;25567;48.276;14.242;2022-12-07T07:55:02;20.50;;;8.57;;
39896;SDS011;25567;48.276;14.242;2022-12-07T07:57:29;20.70;;;9.10;;
39896;SDS011;25567;48.276;14.242;2022-12-07T07:59:56;20.05;;;8.70;;
39896;SDS011;25567;48.276;14.242;2022-12-07T08:02:22;19.67;;;9.73;;
39896;SDS011;25567;48.276;14.242;2022-12-07T08:04:49;21.55;;;10.00;;
39896;SDS011;25567;48.276;14.242;2022-12-07T08:07:17;19.30;;;9.48;;
39896;SDS011;25567;48.276;14.242;2022-12-07T08:09:44;19.92;;;9.63;;
39896;SDS011;25567;48.276;14.242;2022-12-07T08:12:10;21.55;;;9.80;;
39896;SDS011;25567;48.276;14.242;2022-12-07T08:14:37;20.60;;;9.50;;
39896;SDS011;25567;48.276;14.242;2022-12-07T08:17:04;20.80;;;9.50;;
39896;SDS011;25567;48.276;14.242;2022-12-07T08:19:31;20.75;;;10.32;;
39896;SDS011;25567;48.276;14.242;2022-12-07T08:21:57;20.63;;;9.38;;
39896;SDS011;25567;48.276;14.242;2022-12-07T08:24:24;21.98;;;9.98;;
39896;SDS011;25567;48.276;14.242;2022-12-07T08:26:51;19.70;;;9.98;;
39896;SDS011;25567;48.276;14.242;2022-12-07T08:29:18;24.98;;;10.05;;
39896;SDS011;25567;48.276;14.242;2022-12-07T08:31:45;19.00;;;9.82;;
39896;SDS011;25567;48.276;14.242;2022-12-07T08:34:12;23.52;;;11.07;;
39896;SDS011;25567;48.276;14.242;2022-12-07T08:36:39;24.70;;;10.25;;
39896;SDS011;25567;48.276;14.242;2022-12-07T08:39:06;26.13;;;11.02;;
39896;SDS011;25567;48.276;14.242;2022-12-07T08:41:52;28.42;;;12.30;;
39896;SDS011;25567;48.276;14.242;2022-12-07T08:44:19;26.50;;;11.13;;
39896;SDS011;25567;48.276;14.242;2022-12-07T08:46:47;22.88;;;11.10;;
39896;SDS011;25567;48.276;14.242;2022-12-07T08:49:21;27.20;;;10.18;;
39896;SDS011;25567;48.276;14.242;2022-12-07T08:51:52;22.55;;;10.02;;
39896;SDS011;25567;48.276;14.242;2022-12-07T08:54:19;21.60;;;9.98;;
39896;SDS011;25567;48.276;14.242;2022-12-07T08:56:46;22.88;;;10.38;;
39896;SDS011;25567;48.276;14.242;2022-12-07T08:59:19;22.80;;;10.57;;
39896;SDS011;25567;48.276;14.242;2022-12-07T09:01:46;21.17;;;10.57;;
39896;SDS011;25567;48.276;14.242;2022-12-07T09:04:13;21.60;;;10.25;;
39896;SDS011;25567;48.276;14.242;2022-12-07T09:06:42;21.38;;;10.07;;
39896;SDS011;25567;48.276;14.242;2022-12-07T09:09:09;21.08;;;10.00;;
39896;SDS011;25567;48.276;14.242;2022-12-07T09:11:37;23.20;;;10.77;;
39896;SDS011;25567;48.276;14.242;2022-12-07T09:14:05;20.33;;;10.63;;
39896;SDS011;25567;48.276;14.242;2022-12-07T09:16:32;23.77;;;11.32;;
39896;SDS011;25567;48.276;14.242;2022-12-07T09:18:59;26.55;;;11.40;;
39896;SDS011;25567;48.276;14.242;2022-12-07T09:21:25;27.13;;;11.32;;
39896;SDS011;25567;48.276;14.242;2022-12-07T09:23:52;25.63;;;11.90;;
39896;SDS011;25567;48.276;14.242;2022-12-07T09:26:19;26.00;;;11.30;;
39896;SDS011;25567;48.276;14.242;2022-12-07T09:28:45;24.10;;;10.57;;
39896;SDS011;25567;48.276;14.242;2022-12-07T09:31:12;26.75;;;10.88;;
39896;SDS011;25567;48.276;14.242;2022-12-07T09:33:58;25.83;;;11.13;;
39896;SDS011;25567;48.276;14.242;2022-12-07T09:36:27;23.80;;;10.85;;
39896;SDS011;25567;48.276;14.242;2022-12-07T09:38:54;26.90;;;11.40;;
39896;SDS011;25567;48.276;14.242;2022-12-07T09:41:23;23.05;;;10.63;;
39896;SDS011;25567;48.276;14.242;2022-12-07T09:43:53;21.23;;;10.02;;
39896;SDS011;25567;48.276;14.242;2022-12-07T09:46:29;24.70;;;11.20;;
39896;SDS011;25567;48.276;14.242;2022-12-07T09:49:03;23.65;;;10.82;;
39896;SDS011;25567;48.276;14.242;2022-12-07T09:51:30;25.10;;;11.30;;
39896;SDS011;25567;48.276;14.242;2022-12-07T09:53:58;25.98;;;11.45;;
39896;SDS011;25567;48.276;14.242;2022-12-07T09:56:25;22.95;;;11.35;;
39896;SDS011;25567;48.276;14.242;2022-12-07T09:59:01;27.25;;;11.77;;
39896;SDS011;25567;48.276;14.242;2022-12-07T10:01:31;29.25;;;12.45;;
39896;SDS011;25567;48.276;14.242;2022-12-07T10:04:02;30.52;;;12.30;;
39896;SDS011;25567;48.276;14.242;2022-12-07T10:06:37;25.10;;;11.27;;
39896;SDS011;25567;48.276;14.242;2022-12-07T10:09:11;27.92;;;12.68;;
39896;SDS011;25567;48.276;14.242;2022-12-07T10:14:33;26.58;;;11.75;;
39896;SDS011;25567;48.276;14.242;2022-12-07T10:17:26;23.75;;;11.40;;
39896;SDS011;25567;48.276;14.242;2022-12-07T10:20:19;24.17;;;11.52;;
39896;SDS011;25567;48.276;14.242;2022-12-07T10:22:56;24.58;;;10.93;;
39896;SDS011;25567;48.276;14.242;2022-12-07T10:25:25;23.65;;;11.40;;
39896;SDS011;25567;48.276;14.242;2022-12-07T10:27:58;23.98;;;10.95;;
39896;SDS011;25567;48.276;14.242;2022-12-07T10:30:25;28.98;;;11.88;;
39896;SDS011;25567;48.276;14.242;2022-12-07T10:32:51;27.55;;;11.68;;
39896;SDS011;25567;48.276;14.242;2022-12-07T10:37:53;22.27;;;11.48;;
39896;SDS011;25567;48.276;14.242;2022-12-07T10:40:25;25.65;;;11.43;;
39896;SDS011;25567;48.276;14.242;2022-12-07T11:02:22;21.73;;;10.55;;
39896;SDS011;25567;48.276;14.242;2022-12-07T11:18:39;17.20;;;9.65;;
39896;SDS011;25567;48.276;14.242;2022-12-07T11:21:20;20.38;;;9.57;;
39896;SDS011;25567;48.276;14.242;2022-12-07T11:23:59;17.83;;;9.65;;
39896;SDS011;25567;48.276;14.242;2022-12-07T11:37:08;24.27;;;9.93;;
39896;SDS011;25567;48.276;14.242;2022-12-07T11:39:42;19.17;;;10.68;;
39896;SDS011;25567;48.276;14.242;2022-12-07T11:42:15;20.48;;;10.10;;
39896;SDS011;25567;48.276;14.242;2022-12-07T11:47:21;20.63;;;10.68;;
39896;SDS011;25567;48.276;14.242;2022-12-07T11:50:01;21.10;;;10.43;;
39896;SDS011;25567;48.276;14.242;2022-12-07T11:52:51;22.95;;;10.45;;
39896;SDS011;25567;48.276;14.242;2022-12-07T11:55:21;20.20;;;10.88;;
39896;SDS011;25567;48.276;14.242;2022-12-07T11:58:00;18.85;;;9.65;;
39896;SDS011;25567;48.276;14.242;2022-12-07T12:00:40;22.55;;;10.48;;
39896;SDS011;25567;48.276;14.242;2022-12-07T12:03:10;20.95;;;10.10;;
39896;SDS011;25567;48.276;14.242;2022-12-07T12:05:42;20.98;;;9.85;;
39896;SDS011;25567;48.276;14.242;2022-12-07T12:11:00;17.70;;;8.95;;
39896;SDS011;25567;48.276;14.242;2022-12-07T12:13:47;18.23;;;9.48;;
39896;SDS011;25567;48.276;14.242;2022-12-07T12:22:05;19.85;;;9.77;;
39896;SDS011;25567;48.276;14.242;2022-12-07T12:24:39;20.33;;;9.82;;
39896;SDS011;25567;48.276;14.242;2022-12-07T12:27:08;22.60;;;10.15;;
39896;SDS011;25567;48.276;14.242;2022-12-07T12:29:42;18.38;;;8.98;;
39896;SDS011;25567;48.276;14.242;2022-12-07T12:32:18;18.15;;;9.20;;
39896;SDS011;25567;48.276;14.242;2022-12-07T12:37:46;18.45;;;9.75;;
39896;SDS011;25567;48.276;14.242;2022-12-07T12:42:48;18.40;;;8.75;;
39896;SDS011;25567;48.276;14.242;2022-12-07T12:45:20;19.73;;;9.80;;
39896;SDS011;25567;48.276;14.242;2022-12-07T12:50:59;25.20;;;10.75;;
39896;SDS011;25567;48.276;14.242;2022-12-07T12:53:52;23.77;;;10.07;;
39896;SDS011;25567;48.276;14.242;2022-12-07T13:01:54;24.70;;;11.35;;
39896;SDS011;25567;48.276;14.242;2022-12-07T13:06:51;20.30;;;9.70;;
39896;SDS011;25567;48.276;14.242;2022-12-07T13:09:22;18.48;;;9.13;;
39896;SDS011;25567;48.276;14.242;2022-12-07T13:11:56;22.70;;;10.50;;
39896;SDS011;25567;48.276;14.242;2022-12-07T13:17:10;21.55;;;9.88;;
39896;SDS011;25567;48.276;14.242;2022-12-07T13:19:57;22.98;;;9.70;;
39896;SDS011;25567;48.276;14.242;2022-12-07T13:22:38;24.65;;;9.93;;
39896;SDS011;25567;48.276;14.242;2022-12-07T13:25:18;18.23;;;9.38;;
39896;SDS011;25567;48.276;14.242;2022-12-07T13:30:45;22.25;;;9.60;;
39896;SDS011;25567;48.276;14.242;2022-12-07T13:33:17;19.73;;;9.68;;
39896;SDS011;25567;48.276;14.242;2022-12-07T13:35:45;20.75;;;9.95;;
39896;SDS011;25567;48.276;14.242;2022-12-07T13:38:16;23.98;;;9.20;;
39896;SDS011;25567;48.276;14.242;2022-12-07T13:46:14;18.80;;;8.80;;
39896;SDS011;25567;48.276;14.242;2022-12-07T13:48:46;19.58;;;9.40;;
39896;SDS011;25567;48.276;14.242;2022-12-07T13:51:23;20.88;;;9.75;;
39896;SDS011;25567;48.276;14.242;2022-12-07T13:53:54;19.48;;;9.43;;
39896;SDS011;25567;48.276;14.242;2022-12-07T13:56:26;19.52;;;9.18;;
39896;SDS011;25567;48.276;14.242;2022-12-07T13:58:59;23.23;;;9.75;;
39896;SDS011;25567;48.276;14.242;2022-12-07T14:01:26;19.23;;;9.88;;
39896;SDS011;25567;48.276;14.242;2022-12-07T14:03:54;20.17;;;9.60;;
39896;SDS011;25567;48.276;14.242;2022-12-07T14:06:23;21.55;;;9.13;;
39896;SDS011;25567;48.276;14.242;2022-12-07T14:11:47;19.77;;;9.68;;
39896;SDS011;25567;48.276;14.242;2022-12-07T14:14:23;20.80;;;10.05;;
39896;SDS011;25567;48.276;14.242;2022-12-07T14:17:11;31.20;;;9.40;;
39896;SDS011;25567;48.276;14.242;2022-12-07T14:19:47;18.85;;;8.50;;
39896;SDS011;25567;48.276;14.242;2022-12-07T14:22:30;21.23;;;9.60;;
39896;SDS011;25567;48.276;14.242;2022-12-07T14:24:58;19.90;;;9.13;;
39896;SDS011;25567;48.276;14.242;2022-12-07T14:27:30;23.27;;;10.35;;
39896;SDS011;25567;48.276;14.242;2022-12-07T14:30:01;20.40;;;8.45;;
39896;SDS011;25567;48.276;14.242;2022-12-07T14:32:29;20.80;;;9.55;;
39896;SDS011;25567;48.276;14.242;2022-12-07T14:37:27;21.48;;;9.00;;
39896;SDS011;25567;48.276;14.242;2022-12-07T14:39:58;20.05;;;8.90;;
39896;SDS011;25567;48.276;14.242;2022-12-07T14:42:26;20.13;;;9.57;;
39896;SDS011;25567;48.276;14.242;2022-12-07T14:44:56;24.25;;;9.38;;
39896;SDS011;25567;48.276;14.242;2022-12-07T14:47:24;20.05;;;8.98;;
39896;SDS011;25567;48.276;14.242;2022-12-07T14:50:13;22.02;;;10.95;;
39896;SDS011;25567;48.276;14.242;2022-12-07T14:52:46;25.58;;;10.32;;
39896;SDS011;25567;48.276;14.242;2022-12-07T14:55:38;19.70;;;8.55;;
39896;SDS011;25567;48.276;14.242;2022-12-07T14:58:05;18.95;;;8.32;;
39896;SDS011;25567;48.276;14.242;2022-12-07T15:00:32;19.67;;;8.40;;
39896;SDS011;25567;48.276;14.242;2022-12-07T15:03:00;19.88;;;8.50;;
39896;SDS011;25567;48.276;14.242;2022-12-07T15:05:27;21.67;;;10.02;;
39896;SDS011;25567;48.276;14.242;2022-12-07T15:07:54;22.33;;;9.18;;
39896;SDS011;25567;48.276;14.242;2022-12-07T15:10:22;24.48;;;9.13;;
39896;SDS011;25567;48.276;14.242;2022-12-07T15:12:56;21.65;;;9.68;;
39896;SDS011;25567;48.276;14.242;2022-12-07T15:15:38;21.35;;;8.82;;
39896;SDS011;25567;48.276;14.242;2022-12-07T15:18:06;21.45;;;9.55;;
39896;SDS011;25567;48.276;14.242;2022-12-07T15:20:33;19.38;;;8.25;;
39896;SDS011;25567;48.276;14.242;2022-12-07T15:22:59;20.15;;;8.93;;
39896;SDS011;25567;48.276;14.242;2022-12-07T15:25:26;21.77;;;8.52;;
39896;SDS011;25567;48.276;14.242;2022-12-07T15:27:53;21.75;;;9.15;;
39896;SDS011;25567;48.276;14.242;2022-12-07T15:30:20;22.23;;;8.98;;
39896;SDS011;25567;48.276;14.242;2022-12-07T15:32:50;21.33;;;9.30;;
39896;SDS011;25567;48.276;14.242;2022-12-07T15:35:17;20.00;;;8.70;;
39896;SDS011;25567;48.276;14.242;2022-12-07T15:37:45;19.50;;;8.82;;
39896;SDS011;25567;48.276;14.242;2022-12-07T15:40:12;21.20;;;8.70;;
39896;SDS011;25567;48.276;14.242;2022-12-07T15:42:40;25.80;;;10.18;;
39896;SDS011;25567;48.276;14.242;2022-12-07T15:45:07;19.70;;;8.98;;
39896;SDS011;25567;48.276;14.242;2022-12-07T15:47:37;24.73;;;9.13;;
39896;SDS011;25567;48.276;14.242;2022-12-07T15:50:25;22.88;;;9.65;;
39896;SDS011;25567;48.276;14.242;2022-12-07T15:52:52;21.40;;;9.88;;
39896;SDS011;25567;48.276;14.242;2022-12-07T15:55:19;26.08;;;9.48;;
39896;SDS011;25567;48.276;14.242;2022-12-07T15:57:47;22.92;;;9.30;;
39896;SDS011;25567;48.276;14.242;2022-12-07T16:00:15;23.13;;;8.88;;
39896;SDS011;25567;48.276;14.242;2022-12-07T16:02:42;19.88;;;9.55;;
39896;SDS011;25567;48.276;14.242;2022-12-07T16:05:09;24.15;;;10.32;;
39896;SDS011;25567;48.276;14.242;2022-12-07T16:07:36;23.73;;;10.35;;
39896;SDS011;25567;48.276;14.242;2022-12-07T16:10:02;24.40;;;9.70;;
39896;SDS011;25567;48.276;14.242;2022-12-07T16:12:30;22.15;;;10.27;;
39896;SDS011;25567;48.276;14.242;2022-12-07T16:14:56;30.02;;;11.90;;
39896;SDS011;25567;48.276;14.242;2022-12-07T16:17:23;33.25;;;12.75;;
39896;SDS011;25567;48.276;14.242;2022-12-07T16:19:49;33.10;;;12.35;;
39896;SDS011;25567;48.276;14.242;2022-12-07T16:22:16;33.92;;;13.90;;
39896;SDS011;25567;48.276;14.242;2022-12-07T16:24:43;34.67;;;13.85;;
39896;SDS011;25567;48.276;14.242;2022-12-07T16:27:10;35.22;;;14.70;;
39896;SDS011;25567;48.276;14.242;2022-12-07T16:29:36;36.30;;;13.55;;
39896;SDS011;25567;48.276;14.242;2022-12-07T16:32:03;37.20;;;13.88;;
39896;SDS011;25567;48.276;14.242;2022-12-07T16:34:30;30.15;;;13.23;;
39896;SDS011;25567;48.276;14.242;2022-12-07T16:36:56;26.70;;;11.15;;
39896;SDS011;25567;48.276;14.242;2022-12-07T16:39:31;36.80;;;13.63;;
39896;SDS011;25567;48.276;14.242;2022-12-07T16:41:59;40.53;;;14.85;;
39896;SDS011;25567;48.276;14.242;2022-12-07T16:44:26;44.40;;;14.57;;
39896;SDS011;25567;48.276;14.242;2022-12-07T16:46:53;32.50;;;13.68;;
39896;SDS011;25567;48.276;14.242;2022-12-07T16:49:20;31.08;;;12.93;;
39896;SDS011;25567;48.276;14.242;2022-12-07T16:51:49;38.47;;;14.60;;